Amboy, IL (61310)

6:35 PM CDT on April 01, 2015 (GMT -0500)
Lee Co EMA Amboy Site | | Change Station
CLOSE
Current Station
Personal Weather Station
Location: Amboy, IL
Elevation: 765 ft
Nearby Weather Stations

Elev 765 ft 41.71 °N, 89.32 °W | Updated 1 minute ago

Clear
Clear
72.0 °F
Feels Like 77 °F
N
15.0
Wind Variable Wind from South
Gusts 22.0 mph

Today
High -- | Low -- °F
--% Chance of Precip.
Yesterday
High -- | Low -- °F
Precip. -- in
6:40 AM 7:22 PM
Waxing Gibbous, 94% visible
Pressure 29.82 in
Visibility 10.0 miles
Clouds Clear
Heat Index 77 °F
Dew Point 42 °F
Humidity 34%
Rainfall 0.00 in
Snow Depth Not available.
UV 1 out of 12
Pollen 8.90 out of 12
Air Quality Not available.
Flu Activity Not available.
METAR KSQI 012315Z AUTO 19009G21KT 160V230 10SM CLR 23/02 A2982 RMK AO1

More Conditions Fewer Conditions

Pressure 29.82 in
Visibility 10.0 miles
Clouds Clear
Heat Index 77 °F
Dew Point 42 °F
Humidity 34%
Rainfall 0.00 in
Snow Depth Not available.
UV 1 out of 12
Pollen 8.90 out of 12
Air Quality Not available.
Flu Activity Not available.
METAR KSQI 012315Z AUTO 19009G21KT 160V230 10SM CLR 23/02 A2982 RMK AO1

More Conditions Fewer Conditions

10-Day Weather Forecast

Almanac

Astronomy

Apr. 01, 2015 Rise Set
Actual Time
Civil Twilight
Nautical Twilight
Astronomical Twilight
Moon
Length of Visible Light
Length of Day
Tomorrow will be .
, % of the Moon is Illuminated

Today's Extremes

State Highs State Lows

Community

WunderPhotos

Upload Photos

1,810,123 photos uploaded!

WunderBlogs® & News

Nearby

Air Quality

  Air Quality AQ Index Pollutant
Not available.

Snow Depth

Station Depth Elevation

Earthquake Activity

City Distance Mag. Time & Date
Minimum magnitude displayed is 2.5.

Coastal Water Temperatures

Place Temperature

Stations

Nearby Weather Stations

Station Location Temp. Windchill Dew Point Humidity Wind Precip. Elev Updated Type